Search METAR Data

METAR Data for EIKY:

EIKY 241100Z VRB02KT 9999 FEW016 BKN026 BKN033 11/07 Q1020